createdAt,value
2018-11-20T00:00:40.323Z,85.25
2018-11-20T00:01:31.627Z,86.74
2018-11-20T00:03:39.110Z,88.87
2018-11-20T00:04:39.119Z,89.93
2018-11-20T00:05:38.097Z,89.35
2018-11-20T00:06:40.485Z,89.93
2018-11-20T00:07:44.269Z,90.32
2018-11-20T00:10:46.318Z,91.38
2018-11-20T00:11:38.228Z,90.80
2018-11-20T00:12:44.999Z,89.15
2018-11-20T00:13:36.915Z,89.97
2018-11-20T00:14:37.329Z,89.35
2018-11-20T00:15:39.083Z,90.12
2018-11-20T00:18:41.653Z,88.87
2018-11-20T00:19:42.272Z,89.45
2018-11-20T00:20:40.184Z,90.22
2018-11-20T00:21:42.923Z,89.54
2018-11-20T00:22:40.754Z,87.61
2018-11-20T00:23:35.586Z,87.41
2018-11-20T00:24:41.898Z,86.45
2018-11-20T00:25:46.055Z,85.87
2018-11-20T00:27:35.151Z,86.59
2018-11-20T00:28:38.432Z,86.16
2018-11-20T00:29:37.624Z,86.55
2018-11-20T00:31:43.876Z,87.61
2018-11-20T00:33:34.569Z,90.32
2018-11-20T00:34:42.357Z,88.91
2018-11-20T00:35:39.398Z,87.99
2018-11-20T00:36:35.713Z,88.53
2018-11-20T00:38:39.414Z,90.07
2018-11-20T00:39:35.116Z,90.56
2018-11-20T00:41:37.380Z,90.65
2018-11-20T00:43:41.693Z,90.07
2018-11-20T00:44:39.535Z,89.88
2018-11-20T00:45:43.853Z,90.26
2018-11-20T00:46:34.848Z,90.65
2018-11-20T00:47:40.490Z,91.14
2018-11-20T00:48:40.065Z,93.36
2018-11-20T00:49:41.624Z,92.88
2018-11-20T00:50:38.147Z,92.49
2018-11-20T00:51:41.328Z,92.30
2018-11-20T00:52:41.947Z,92.68
2018-11-20T00:54:42.881Z,93.31
2018-11-20T00:56:43.977Z,93.99
2018-11-20T00:57:47.229Z,94.09
2018-11-20T01:01:41.691Z,91.52
2018-11-20T01:02:44.155Z,91.14
2018-11-20T01:03:47.385Z,92.83
2018-11-20T01:06:46.139Z,93.12
2018-11-20T01:07:43.466Z,93.12
2018-11-20T01:08:40.401Z,93.21
2018-11-20T01:09:41.553Z,93.51
2018-11-20T01:10:44.200Z,93.51
2018-11-20T01:12:51.465Z,94.09
2018-11-20T01:13:44.228Z,94.47
2018-11-20T01:18:45.067Z,94.13
2018-11-20T01:19:42.514Z,95.10
2018-11-20T01:20:44.769Z,94.71
2018-11-20T01:21:37.312Z,94.71
2018-11-20T01:22:42.318Z,94.04
2018-11-20T01:23:42.431Z,95.58
2018-11-20T01:24:34.756Z,96.55
2018-11-20T01:25:38.654Z,94.90
2018-11-20T01:26:43.744Z,95.78
2018-11-20T01:27:44.193Z,93.94
2018-11-20T01:28:44.111Z,94.81
2018-11-20T01:30:43.289Z,94.66
2018-11-20T01:31:46.470Z,96.07
2018-11-20T01:32:45.090Z,95.29
2018-11-20T01:34:37.180Z,95.63
2018-11-20T01:35:45.910Z,97.47
2018-11-20T01:37:40.154Z,96.50
2018-11-20T01:38:40.091Z,95.34
2018-11-20T01:39:44.774Z,95.34
2018-11-20T01:40:37.229Z,95.43
2018-11-20T01:41:37.762Z,95.25
2018-11-20T01:42:42.381Z,95.43
2018-11-20T01:45:38.467Z,95.92
2018-11-20T01:46:44.265Z,95.34
2018-11-20T01:47:48.403Z,95.97
2018-11-20T01:48:43.699Z,96.65
2018-11-20T01:49:39.096Z,98.00
2018-11-20T01:50:36.644Z,96.75
2018-11-20T01:51:43.921Z,96.84
2018-11-20T01:52:45.056Z,96.55
2018-11-20T01:54:39.022Z,97.33
2018-11-20T01:55:44.865Z,97.03
2018-11-20T01:56:51.936Z,96.55
2018-11-20T01:57:40.984Z,96.55
2018-11-20T01:58:43.366Z,96.84
2018-11-20T01:59:34.135Z,97.28
2018-11-20T02:00:42.129Z,97.28
2018-11-20T02:01:45.923Z,97.18
2018-11-20T02:02:40.296Z,98.63
2018-11-20T02:03:39.358Z,97.18
2018-11-20T02:04:44.303Z,96.79
2018-11-20T02:05:45.536Z,97.08
2018-11-20T02:06:44.415Z,98.15
2018-11-20T02:07:40.530Z,97.66
2018-11-20T02:10:40.088Z,97.56
2018-11-20T02:11:46.597Z,96.89
2018-11-20T02:12:45.681Z,97.28
2018-11-20T02:14:42.724Z,97.38
2018-11-20T02:15:36.107Z,96.89
2018-11-20T02:16:46.213Z,97.71
2018-11-20T02:17:45.926Z,97.18
2018-11-20T02:19:40.496Z,97.66
2018-11-20T02:21:47.988Z,98.39
2018-11-20T02:23:44.625Z,97.91
2018-11-20T02:25:42.884Z,97.71
2018-11-20T02:26:41.764Z,98.20
2018-11-20T02:27:42.596Z,97.71
2018-11-20T02:28:41.266Z,97.81
2018-11-20T02:29:43.114Z,97.33
2018-11-20T02:30:40.762Z,97.13
2018-11-20T02:31:44.762Z,98.00
2018-11-20T02:32:39.954Z,97.81
2018-11-20T02:33:40.882Z,96.84
2018-11-20T02:34:43.653Z,96.64
2018-11-20T02:35:42.839Z,97.42
2018-11-20T02:37:43.472Z,97.81
2018-11-20T02:38:40.911Z,97.23
2018-11-20T02:39:47.066Z,96.55
2018-11-20T02:40:51.267Z,96.84
2018-11-20T02:41:42.466Z,96.94
2018-11-20T02:42:46.258Z,96.55
2018-11-20T02:43:43.399Z,97.03
2018-11-20T02:44:45.349Z,96.94
2018-11-20T02:45:42.589Z,97.42
2018-11-20T02:46:41.062Z,96.45
2018-11-20T02:47:42.505Z,96.94
2018-11-20T02:48:47.521Z,96.79
2018-11-20T02:49:45.478Z,97.23
2018-11-20T02:50:51.423Z,97.33
2018-11-20T02:51:43.646Z,96.74
2018-11-20T02:52:46.527Z,96.79
2018-11-20T02:54:48.069Z,96.98
2018-11-20T02:55:42.369Z,96.69
2018-11-20T02:56:41.733Z,97.18
2018-11-20T02:57:44.295Z,96.98
2018-11-20T02:59:45.127Z,96.59
2018-11-20T03:01:47.286Z,96.79
2018-11-20T03:02:44.939Z,96.69
2018-11-20T03:03:43.252Z,97.37
2018-11-20T03:05:41.168Z,96.98
2018-11-20T03:06:44.883Z,97.28
2018-11-20T03:07:48.040Z,96.69
2018-11-20T03:08:45.638Z,96.98
2018-11-20T03:09:45.696Z,96.69
2018-11-20T03:11:46.139Z,97.28
2018-11-20T03:12:41.334Z,97.37
2018-11-20T03:13:46.766Z,96.98
2018-11-20T03:14:49.614Z,97.08
2018-11-20T03:16:44.351Z,95.82
2018-11-20T03:17:42.463Z,95.53
2018-11-20T03:19:44.319Z,95.92
2018-11-20T03:20:38.589Z,97.03
2018-11-20T03:22:52.936Z,97.03
2018-11-20T03:23:46.388Z,97.03
2018-11-20T03:24:42.912Z,96.94
2018-11-20T03:25:45.170Z,96.35
2018-11-20T03:26:37.600Z,96.94
2018-11-20T03:27:45.048Z,95.87
2018-11-20T03:28:46.314Z,96.06
2018-11-20T03:29:42.633Z,96.74
2018-11-20T03:31:40.802Z,96.74
2018-11-20T03:32:48.794Z,97.42
2018-11-20T03:33:47.982Z,96.84
2018-11-20T03:34:42.689Z,96.55
2018-11-20T03:35:46.149Z,96.84
2018-11-20T03:36:45.870Z,97.03
2018-11-20T03:37:46.982Z,98.10
2018-11-20T03:38:47.409Z,98.39
2018-11-20T03:39:46.070Z,97.17
2018-11-20T03:40:45.460Z,97.86
2018-11-20T03:41:50.586Z,99.02
2018-11-20T03:43:43.020Z,98.44
2018-11-20T03:44:44.050Z,97.37
2018-11-20T03:45:44.466Z,98.05
2018-11-20T03:46:47.134Z,98.25
2018-11-20T03:47:47.916Z,98.05
2018-11-20T03:48:49.910Z,98.34
2018-11-20T03:49:37.628Z,98.44
2018-11-20T03:50:51.458Z,98.34
2018-11-20T03:51:51.057Z,99.32
2018-11-20T03:52:49.219Z,99.99
2018-11-20T03:53:43.180Z,99.99
2018-11-20T03:54:42.663Z,99.99
2018-11-20T03:55:46.005Z,99.32
2018-11-20T03:56:50.774Z,99.32
2018-11-20T03:58:40.033Z,99.41
2018-11-20T03:59:42.668Z,99.60
2018-11-20T04:00:46.599Z,99.12
2018-11-20T04:01:47.730Z,99.99
2018-11-20T04:02:51.319Z,99.99
2018-11-20T04:03:48.971Z,99.99
2018-11-20T04:04:40.990Z,99.99
2018-11-20T04:05:50.518Z,99.99
2018-11-20T04:06:51.348Z,99.99
2018-11-20T04:07:44.896Z,99.65
2018-11-20T04:08:38.881Z,99.99
2018-11-20T04:09:44.602Z,99.99
2018-11-20T04:11:48.708Z,99.56
2018-11-20T04:13:46.173Z,99.99
2018-11-20T04:14:46.575Z,99.99
2018-11-20T04:15:46.791Z,99.99
2018-11-20T04:16:49.151Z,99.99
2018-11-20T04:17:43.028Z,99.99
2018-11-20T04:18:51.512Z,99.99
2018-11-20T04:20:46.118Z,99.99
2018-11-20T04:21:52.453Z,99.75
2018-11-20T04:22:45.802Z,99.46
2018-11-20T04:23:43.043Z,99.95
2018-11-20T04:24:46.646Z,99.99
2018-11-20T04:25:52.679Z,99.99
2018-11-20T04:26:49.818Z,99.56
2018-11-20T04:28:46.552Z,99.75
2018-11-20T04:29:46.251Z,99.07
2018-11-20T04:30:41.783Z,98.78
2018-11-20T04:31:43.404Z,99.22
2018-11-20T04:32:48.111Z,99.51
2018-11-20T04:33:48.117Z,99.99
2018-11-20T04:34:43.828Z,99.99
2018-11-20T04:35:42.444Z,99.99
2018-11-20T04:36:49.466Z,99.99
2018-11-20T04:37:45.579Z,99.99
2018-11-20T04:38:50.911Z,99.99
2018-11-20T04:39:43.771Z,99.99
2018-11-20T04:40:47.567Z,99.99
2018-11-20T04:41:53.589Z,99.99
2018-11-20T04:42:50.728Z,99.99
2018-11-20T04:43:37.016Z,99.99
2018-11-20T04:45:39.277Z,99.99
2018-11-20T04:46:47.985Z,99.99
2018-11-20T04:47:46.940Z,99.99
2018-11-20T04:48:43.286Z,99.99
2018-11-20T04:49:50.306Z,99.99
2018-11-20T04:50:49.134Z,99.99
2018-11-20T04:51:48.628Z,99.99
2018-11-20T04:52:48.941Z,99.99
2018-11-20T04:53:44.852Z,99.99
2018-11-20T04:54:44.696Z,99.99
2018-11-20T04:55:47.177Z,99.99
2018-11-20T04:56:41.902Z,99.99
2018-11-20T04:57:46.512Z,99.99
2018-11-20T04:59:40.688Z,99.99
2018-11-20T05:00:43.969Z,99.99
2018-11-20T05:01:44.899Z,99.99
2018-11-20T05:02:55.759Z,99.99
2018-11-20T05:03:45.012Z,99.99
2018-11-20T05:04:46.860Z,99.99
2018-11-20T05:05:44.225Z,99.99
2018-11-20T05:06:47.031Z,99.99
2018-11-20T05:07:46.470Z,99.99
2018-11-20T05:08:47.393Z,99.99
2018-11-20T05:09:37.979Z,99.99
2018-11-20T05:10:49.205Z,99.99
2018-11-20T05:11:43.481Z,99.99
2018-11-20T05:12:44.706Z,99.99
2018-11-20T05:14:39.769Z,99.99
2018-11-20T05:16:46.136Z,99.99
2018-11-20T05:18:51.957Z,99.99
2018-11-20T05:19:49.917Z,99.99
2018-11-20T05:20:44.902Z,99.99
2018-11-20T05:21:49.740Z,99.99
2018-11-20T05:22:52.391Z,99.99
2018-11-20T05:23:59.972Z,99.99
2018-11-20T05:24:39.908Z,99.99
2018-11-20T05:25:49.948Z,99.99
2018-11-20T05:26:45.551Z,99.99
2018-11-20T05:27:45.254Z,99.99
2018-11-20T05:28:50.813Z,99.99
2018-11-20T05:29:52.216Z,99.99
2018-11-20T05:30:49.062Z,99.99
2018-11-20T05:31:48.304Z,99.99
2018-11-20T05:32:51.935Z,99.99
2018-11-20T05:33:49.384Z,99.99
2018-11-20T05:34:50.207Z,99.99
2018-11-20T05:35:45.718Z,99.99
2018-11-20T05:36:52.784Z,99.99
2018-11-20T05:38:45.927Z,99.99
2018-11-20T05:39:46.034Z,99.99
2018-11-20T05:40:48.910Z,99.99
2018-11-20T05:41:45.230Z,99.99
2018-11-20T05:42:47.222Z,99.99
2018-11-20T05:43:46.367Z,99.99
2018-11-20T05:46:50.209Z,99.99
2018-11-20T05:47:41.988Z,99.99
2018-11-20T05:48:41.991Z,99.99
2018-11-20T05:49:44.250Z,99.99
2018-11-20T05:50:48.680Z,99.99
2018-11-20T05:51:49.789Z,99.99
2018-11-20T05:52:46.211Z,99.99
2018-11-20T05:54:51.240Z,99.99
2018-11-20T05:55:39.675Z,99.99
2018-11-20T05:56:46.746Z,99.99
2018-11-20T05:57:46.231Z,99.99
2018-11-20T05:58:43.275Z,99.99
2018-11-20T05:59:52.397Z,99.99
2018-11-20T06:00:52.606Z,99.99
2018-11-20T06:01:40.630Z,99.99
2018-11-20T06:02:44.234Z,99.99
2018-11-20T06:03:49.652Z,99.99
2018-11-20T06:04:50.784Z,99.99
2018-11-20T06:05:52.350Z,99.99
2018-11-20T06:06:41.997Z,99.99
2018-11-20T06:07:48.857Z,99.99
2018-11-20T06:09:49.585Z,99.99
2018-11-20T06:11:48.065Z,99.99
2018-11-20T06:12:43.539Z,99.99
2018-11-20T06:13:49.916Z,99.99
2018-11-20T06:14:46.441Z,99.99
2018-11-20T06:15:45.216Z,99.99
2018-11-20T06:16:44.508Z,99.99
2018-11-20T06:19:46.876Z,99.99
2018-11-20T06:20:49.544Z,99.99
2018-11-20T06:21:43.744Z,99.99
2018-11-20T06:22:46.897Z,99.99
2018-11-20T06:24:44.757Z,99.99
2018-11-20T06:26:53.163Z,99.99
2018-11-20T06:27:46.102Z,99.99
2018-11-20T06:28:45.492Z,99.99
2018-11-20T06:29:41.404Z,99.99
2018-11-20T06:30:47.156Z,99.99
2018-11-20T06:31:46.330Z,99.99
2018-11-20T06:32:51.870Z,99.99
2018-11-20T06:33:45.625Z,99.99
2018-11-20T06:34:45.830Z,99.99
2018-11-20T06:35:45.097Z,99.99
2018-11-20T06:36:50.762Z,99.99
2018-11-20T06:37:45.246Z,99.99
2018-11-20T06:38:47.704Z,99.99
2018-11-20T06:39:44.125Z,99.99
2018-11-20T06:41:49.259Z,99.99
2018-11-20T06:42:50.157Z,99.99
2018-11-20T06:43:45.682Z,99.99
2018-11-20T06:44:41.489Z,99.99
2018-11-20T06:45:58.503Z,99.99
2018-11-20T06:46:48.172Z,99.99
2018-11-20T06:47:49.698Z,99.99
2018-11-20T06:49:43.574Z,99.99
2018-11-20T06:51:52.690Z,99.99
2018-11-20T06:52:40.927Z,99.99
2018-11-20T06:53:51.804Z,99.99
2018-11-20T06:55:50.462Z,99.99
2018-11-20T06:56:44.221Z,99.99
2018-11-20T06:57:51.087Z,99.99
2018-11-20T06:58:53.348Z,99.99
2018-11-20T06:59:46.185Z,99.99
2018-11-20T07:00:45.164Z,99.99
2018-11-20T07:01:48.250Z,99.99
2018-11-20T07:02:47.429Z,99.99
2018-11-20T07:03:47.230Z,99.99
2018-11-20T07:04:54.317Z,99.99
2018-11-20T07:05:47.243Z,99.99
2018-11-20T07:07:48.174Z,99.99
2018-11-20T07:08:47.515Z,99.99
2018-11-20T07:09:43.577Z,99.99
2018-11-20T07:10:52.038Z,99.99
2018-11-20T07:11:45.560Z,99.99
2018-11-20T07:12:46.668Z,99.99
2018-11-20T07:14:46.786Z,99.99
2018-11-20T07:15:45.704Z,99.99
2018-11-20T07:16:48.020Z,99.99
2018-11-20T07:17:48.232Z,99.99
2018-11-20T07:18:49.414Z,99.99
2018-11-20T07:19:52.748Z,99.99
2018-11-20T07:20:58.180Z,99.99
2018-11-20T07:21:47.641Z,99.99
2018-11-20T07:22:46.117Z,99.99
2018-11-20T07:23:52.976Z,99.99
2018-11-20T07:25:43.064Z,99.99
2018-11-20T07:26:59.750Z,99.99
2018-11-20T07:27:53.918Z,99.99
2018-11-20T07:28:49.780Z,99.99
2018-11-20T07:29:46.377Z,99.99
2018-11-20T07:30:55.700Z,99.99
2018-11-20T07:31:56.125Z,99.99
2018-11-20T07:34:44.458Z,99.99
2018-11-20T07:35:50.382Z,99.99
2018-11-20T07:36:48.517Z,99.99
2018-11-20T07:37:52.644Z,99.99
2018-11-20T07:38:51.021Z,99.99
2018-11-20T07:40:55.324Z,99.99
2018-11-20T07:41:51.360Z,99.99
2018-11-20T07:42:46.938Z,99.99
2018-11-20T07:44:57.296Z,99.99
2018-11-20T07:45:50.336Z,99.99
2018-11-20T07:46:51.261Z,99.99
2018-11-20T07:48:45.204Z,99.99
2018-11-20T07:50:51.296Z,99.99
2018-11-20T07:51:55.595Z,99.99
2018-11-20T07:52:46.694Z,99.99
2018-11-20T07:53:49.583Z,99.99
2018-11-20T07:54:56.427Z,99.99
2018-11-20T07:55:51.982Z,99.99
2018-11-20T07:56:56.438Z,99.99
2018-11-20T07:57:43.824Z,99.99
2018-11-20T07:59:48.062Z,99.99
2018-11-20T08:00:48.117Z,99.99
2018-11-20T08:01:54.114Z,99.99
2018-11-20T08:02:50.227Z,99.99
2018-11-20T08:03:56.478Z,99.99
2018-11-20T08:04:50.545Z,99.99
2018-11-20T08:05:52.192Z,99.99
2018-11-20T08:06:48.202Z,99.99
2018-11-20T08:07:48.957Z,99.99
2018-11-20T08:08:51.196Z,99.99
2018-11-20T08:09:48.307Z,99.99
2018-11-20T08:10:53.651Z,99.99
2018-11-20T08:11:53.555Z,99.99
2018-11-20T08:12:48.753Z,99.99
2018-11-20T08:13:48.037Z,99.99
2018-11-20T08:14:50.730Z,99.99
2018-11-20T08:15:47.697Z,99.99
2018-11-20T08:18:58.816Z,99.99
2018-11-20T08:19:56.876Z,99.99
2018-11-20T08:20:43.878Z,99.99
2018-11-20T08:21:51.332Z,99.99
2018-11-20T08:22:54.640Z,99.99
2018-11-20T08:24:56.187Z,99.99
2018-11-20T08:25:49.183Z,99.99
2018-11-20T08:26:52.207Z,99.99
2018-11-20T08:27:51.927Z,99.99
2018-11-20T08:29:53.004Z,99.99
2018-11-20T08:30:42.300Z,99.99
2018-11-20T08:32:48.453Z,99.99
2018-11-20T08:33:46.719Z,99.99
2018-11-20T08:34:46.621Z,99.99
2018-11-20T08:36:46.836Z,99.99
2018-11-20T08:37:53.804Z,99.99
2018-11-20T08:39:46.140Z,99.99
2018-11-20T08:40:53.520Z,99.99
2018-11-20T08:41:52.150Z,99.99
2018-11-20T08:42:59.067Z,99.99
2018-11-20T08:44:48.623Z,99.99
2018-11-20T08:46:50.516Z,99.99
2018-11-20T08:48:58.066Z,99.99
2018-11-20T08:49:56.433Z,99.99
2018-11-20T08:50:56.849Z,99.99
2018-11-20T08:51:47.640Z,99.99
2018-11-20T08:53:48.375Z,99.99
2018-11-20T08:55:52.176Z,99.99
2018-11-20T08:56:58.231Z,99.99
2018-11-20T08:58:48.587Z,99.99
2018-11-20T08:59:47.584Z,99.99
2018-11-20T09:01:57.643Z,99.99
2018-11-20T09:02:49.203Z,99.99
2018-11-20T09:03:51.254Z,99.99
2018-11-20T09:04:48.330Z,99.99
2018-11-20T09:05:55.397Z,99.99
2018-11-20T09:07:48.651Z,99.99
2018-11-20T09:08:52.648Z,99.99
2018-11-20T09:09:50.983Z,99.99
2018-11-20T09:10:55.246Z,99.99
2018-11-20T09:11:50.662Z,99.99
2018-11-20T09:13:54.934Z,99.99
2018-11-20T09:14:49.612Z,99.99
2018-11-20T09:15:56.345Z,99.99
2018-11-20T09:16:55.872Z,99.99
2018-11-20T09:18:01.891Z,99.99
2018-11-20T09:18:47.189Z,99.99
2018-11-20T09:19:51.347Z,99.99
2018-11-20T09:20:49.751Z,99.99
2018-11-20T09:22:00.915Z,99.99
2018-11-20T09:22:47.404Z,99.99
2018-11-20T09:23:44.135Z,99.99
2018-11-20T09:24:51.513Z,99.99
2018-11-20T09:25:48.701Z,99.99
2018-11-20T09:26:56.439Z,99.99
2018-11-20T09:27:49.807Z,99.99
2018-11-20T09:28:52.985Z,99.99
2018-11-20T09:29:54.407Z,99.99
2018-11-20T09:30:43.149Z,99.99
2018-11-20T09:31:55.546Z,99.99
2018-11-20T09:32:58.622Z,99.99
2018-11-20T09:33:56.068Z,99.99
2018-11-20T09:34:52.328Z,99.99
2018-11-20T09:36:50.658Z,99.99
2018-11-20T09:39:58.047Z,99.99
2018-11-20T09:40:53.449Z,99.99
2018-11-20T09:41:54.489Z,99.99
2018-11-20T09:42:53.354Z,99.99
2018-11-20T09:43:57.456Z,99.99
2018-11-20T09:44:54.907Z,99.99
2018-11-20T09:45:51.451Z,99.99
2018-11-20T09:46:53.922Z,99.99
2018-11-20T09:47:43.860Z,99.99
2018-11-20T09:48:55.953Z,99.99
2018-11-20T09:50:51.275Z,99.99
2018-11-20T09:51:55.255Z,99.99
2018-11-20T09:53:00.682Z,99.99
2018-11-20T09:53:55.670Z,99.99
2018-11-20T09:54:55.063Z,99.99
2018-11-20T09:55:55.783Z,99.99
2018-11-20T09:56:56.609Z,99.99
2018-11-20T09:58:59.402Z,99.99
2018-11-20T09:59:47.876Z,99.99
2018-11-20T10:00:52.126Z,99.99
2018-11-20T10:01:58.463Z,99.99
2018-11-20T10:02:54.601Z,99.99
2018-11-20T10:04:50.112Z,99.99
2018-11-20T10:05:54.510Z,99.99
2018-11-20T10:06:45.305Z,99.99
2018-11-20T10:07:55.445Z,99.99
2018-11-20T10:08:53.260Z,99.99
2018-11-20T10:09:57.820Z,99.99
2018-11-20T10:10:53.136Z,99.99
2018-11-20T10:11:51.475Z,99.99
2018-11-20T10:13:00.898Z,99.99
2018-11-20T10:13:58.067Z,99.99
2018-11-20T10:14:46.744Z,99.99
2018-11-20T10:15:50.386Z,99.99
2018-11-20T10:16:54.882Z,99.99
2018-11-20T10:18:54.592Z,99.99
2018-11-20T10:19:48.563Z,99.99
2018-11-20T10:20:54.027Z,99.99
2018-11-20T10:21:50.508Z,99.99
2018-11-20T10:22:54.625Z,99.99
2018-11-20T10:24:56.750Z,99.99
2018-11-20T10:25:56.920Z,99.99
2018-11-20T10:26:53.492Z,99.99
2018-11-20T10:27:56.580Z,99.99
2018-11-20T10:28:46.260Z,99.99
2018-11-20T10:29:58.230Z,99.99
2018-11-20T10:30:52.913Z,99.99
2018-11-20T10:31:55.179Z,99.99
2018-11-20T10:32:49.543Z,99.99
2018-11-20T10:33:53.134Z,99.99
2018-11-20T10:34:51.935Z,99.99
2018-11-20T10:35:56.833Z,99.99
2018-11-20T10:36:45.510Z,99.99
2018-11-20T10:38:01.861Z,99.99
2018-11-20T10:38:53.264Z,99.99
2018-11-20T10:39:54.501Z,99.99
2018-11-20T10:40:54.811Z,99.99
2018-11-20T10:41:53.178Z,99.99
2018-11-20T10:42:54.515Z,99.99
2018-11-20T10:44:01.896Z,99.99
2018-11-20T10:44:53.933Z,99.99
2018-11-20T10:45:53.437Z,99.99
2018-11-20T10:47:00.478Z,99.99
2018-11-20T10:48:55.573Z,99.99
2018-11-20T10:50:02.644Z,99.99
2018-11-20T10:50:49.367Z,99.99
2018-11-20T10:51:55.737Z,99.99
2018-11-20T10:53:49.050Z,99.99
2018-11-20T10:55:01.957Z,99.99
2018-11-20T10:55:54.901Z,99.99
2018-11-20T10:56:56.234Z,99.99
2018-11-20T10:57:56.394Z,99.99
2018-11-20T10:58:54.238Z,99.99
2018-11-20T10:59:57.174Z,99.99
2018-11-20T11:00:56.179Z,99.99
2018-11-20T11:02:51.406Z,99.99
2018-11-20T11:05:52.599Z,99.99
2018-11-20T11:06:59.792Z,99.99
2018-11-20T11:07:56.256Z,99.99
2018-11-20T11:08:58.146Z,99.99
2018-11-20T11:09:52.828Z,99.99
2018-11-20T11:10:56.416Z,99.99
2018-11-20T11:11:49.508Z,99.99
2018-11-20T11:12:52.252Z,99.99
2018-11-20T11:13:56.331Z,99.99
2018-11-20T11:16:57.884Z,99.99
2018-11-20T11:18:00.671Z,99.99
2018-11-20T11:18:57.690Z,99.99
2018-11-20T11:23:00.149Z,99.99
2018-11-20T11:23:49.869Z,99.99
2018-11-20T11:24:59.056Z,99.99
2018-11-20T11:25:54.149Z,99.99
2018-11-20T11:26:53.231Z,99.99
2018-11-20T11:27:54.160Z,99.99
2018-11-20T11:28:53.663Z,99.99
2018-11-20T11:30:58.171Z,99.99
2018-11-20T11:31:56.947Z,99.46
2018-11-20T11:32:51.431Z,99.99
2018-11-20T11:34:55.021Z,99.99
2018-11-20T11:35:54.922Z,99.56
2018-11-20T11:36:53.908Z,99.51
2018-11-20T11:39:59.250Z,99.99
2018-11-20T11:41:02.734Z,99.75
2018-11-20T11:41:57.208Z,99.95
2018-11-20T11:43:53.432Z,98.29
2018-11-20T11:44:57.942Z,98.00
2018-11-20T11:45:58.870Z,98.97
2018-11-20T11:46:48.943Z,99.17
2018-11-20T11:48:05.025Z,98.58
2018-11-20T11:48:55.457Z,97.90
2018-11-20T11:49:57.665Z,97.90
2018-11-20T11:50:50.118Z,97.32
2018-11-20T11:52:00.645Z,97.03
2018-11-20T11:52:59.524Z,97.32
2018-11-20T11:53:50.109Z,97.03
2018-11-20T11:54:54.100Z,97.32
2018-11-20T11:56:56.581Z,97.03
2018-11-20T11:57:51.387Z,97.03
2018-11-20T11:59:02.224Z,97.22
2018-11-20T11:59:57.515Z,97.22
2018-11-20T12:00:49.884Z,97.32
2018-11-20T12:03:57.441Z,96.83
2018-11-20T12:04:56.739Z,95.76
2018-11-20T12:05:56.487Z,95.76
2018-11-20T12:06:56.443Z,96.15
2018-11-20T12:08:01.447Z,94.35
2018-11-20T12:08:55.939Z,93.29
2018-11-20T12:10:01.475Z,94.65
2018-11-20T12:11:01.061Z,94.26
2018-11-20T12:11:57.896Z,94.45
2018-11-20T12:12:52.163Z,94.84
2018-11-20T12:13:51.978Z,94.26
2018-11-20T12:14:56.989Z,92.90
2018-11-20T12:15:53.511Z,92.80
2018-11-20T12:17:54.752Z,92.11
2018-11-20T12:19:04.486Z,92.50
2018-11-20T12:19:47.659Z,91.44
2018-11-20T12:20:56.202Z,91.34
2018-11-20T12:22:02.455Z,90.75
2018-11-20T12:22:58.261Z,91.05
2018-11-20T12:23:54.200Z,91.05
2018-11-20T12:24:52.948Z,92.21
2018-11-20T12:25:51.424Z,92.70
2018-11-20T12:26:55.624Z,92.02
2018-11-20T12:29:55.512Z,92.21
2018-11-20T12:30:56.456Z,91.53
2018-11-20T12:31:55.662Z,91.53
2018-11-20T12:33:54.127Z,91.83
2018-11-20T12:34:56.909Z,91.44
2018-11-20T12:35:54.599Z,92.50
2018-11-20T12:36:57.340Z,90.75
2018-11-20T12:37:56.812Z,91.44
2018-11-20T12:38:53.643Z,92.02
2018-11-20T12:39:52.318Z,91.53
2018-11-20T12:40:50.828Z,91.63
2018-11-20T12:41:52.844Z,92.21
2018-11-20T12:42:57.659Z,91.44
2018-11-20T12:43:56.780Z,91.83
2018-11-20T12:44:49.480Z,90.66
2018-11-20T12:45:57.803Z,90.46
2018-11-20T12:48:03.626Z,89.88
2018-11-20T12:48:58.489Z,88.23
2018-11-20T12:50:02.925Z,89.29
2018-11-20T12:50:56.374Z,87.93
2018-11-20T12:52:00.170Z,87.99
2018-11-20T12:52:50.693Z,86.92
2018-11-20T12:53:57.777Z,87.02
2018-11-20T12:54:54.657Z,85.94
2018-11-20T12:55:57.017Z,86.77
2018-11-20T12:56:58.866Z,87.35
2018-11-20T12:57:53.975Z,87.35
2018-11-20T12:58:57.138Z,87.06
2018-11-20T13:00:00.930Z,86.67
2018-11-20T13:00:53.771Z,86.57
2018-11-20T13:01:55.076Z,86.53
2018-11-20T13:02:59.963Z,85.85
2018-11-20T13:03:52.659Z,85.94
2018-11-20T13:04:58.300Z,84.88
2018-11-20T13:05:57.895Z,85.66
2018-11-20T13:07:02.943Z,84.58
2018-11-20T13:08:04.476Z,84.30
2018-11-20T13:08:58.626Z,83.61
2018-11-20T13:10:01.978Z,83.51
2018-11-20T13:10:57.511Z,81.86
2018-11-20T13:11:54.856Z,81.09
2018-11-20T13:12:52.611Z,81.28
2018-11-20T13:14:02.649Z,81.09
2018-11-20T13:14:59.788Z,81.28
2018-11-20T13:15:53.581Z,80.40
2018-11-20T13:17:01.375Z,78.94
2018-11-20T13:18:03.613Z,78.91
2018-11-20T13:19:01.144Z,77.64
2018-11-20T13:19:49.268Z,77.84
2018-11-20T13:20:57.262Z,78.61
2018-11-20T13:22:03.924Z,79.20
2018-11-20T13:23:07.105Z,78.75
2018-11-20T13:23:54.111Z,78.71
2018-11-20T13:24:57.981Z,79.04
2018-11-20T13:25:53.714Z,79.63
2018-11-20T13:26:58.423Z,78.61
2018-11-20T13:27:59.877Z,79.04
2018-11-20T13:28:56.283Z,78.85
2018-11-20T13:29:52.705Z,78.85
2018-11-20T13:30:58.661Z,78.56
2018-11-20T13:31:54.974Z,77.58
2018-11-20T13:33:00.721Z,77.10
2018-11-20T13:34:01.022Z,77.94
2018-11-20T13:34:57.686Z,76.28
2018-11-20T13:36:00.215Z,77.29
2018-11-20T13:36:57.864Z,77.06
2018-11-20T13:38:00.688Z,76.09
2018-11-20T13:38:53.987Z,77.10
2018-11-20T13:40:00.649Z,77.78
2018-11-20T13:41:01.065Z,76.67
2018-11-20T13:41:58.713Z,75.02
2018-11-20T13:42:58.923Z,74.82
2018-11-20T13:43:51.957Z,75.51
2018-11-20T13:44:57.228Z,75.31
2018-11-20T13:45:52.998Z,75.84
2018-11-20T13:46:56.515Z,77.00
2018-11-20T13:48:00.693Z,76.97
2018-11-20T13:48:56.033Z,76.90
2018-11-20T13:49:55.490Z,75.60
2018-11-20T13:50:55.692Z,75.80
2018-11-20T13:52:03.686Z,75.51
2018-11-20T13:53:03.076Z,75.99
2018-11-20T13:53:59.192Z,75.74
2018-11-20T13:54:53.882Z,75.80
2018-11-20T13:56:00.639Z,76.22
2018-11-20T13:56:56.136Z,76.81
2018-11-20T13:58:01.568Z,75.21
2018-11-20T13:58:59.425Z,75.60
2018-11-20T14:00:01.430Z,75.70
2018-11-20T14:01:55.449Z,76.90
2018-11-20T14:03:01.086Z,76.28
2018-11-20T14:03:50.861Z,76.32
2018-11-20T14:06:02.946Z,76.48
2018-11-20T14:06:58.958Z,77.00
2018-11-20T14:07:58.962Z,77.78
2018-11-20T14:08:54.772Z,77.64
2018-11-20T14:09:56.896Z,76.57
2018-11-20T14:11:52.903Z,75.02
2018-11-20T14:13:06.468Z,75.80
2018-11-20T14:13:59.512Z,76.12
2018-11-20T14:14:54.703Z,77.00
2018-11-20T14:15:59.008Z,76.48
2018-11-20T14:17:03.009Z,76.71
2018-11-20T14:17:55.578Z,75.89
2018-11-20T14:18:50.871Z,74.44
2018-11-20T14:20:02.719Z,74.73
2018-11-20T14:21:58.326Z,75.41
2018-11-20T14:23:54.447Z,74.44
2018-11-20T14:24:55.886Z,74.82
2018-11-20T14:25:56.019Z,74.63
2018-11-20T14:27:03.477Z,73.95
2018-11-20T14:28:06.521Z,75.02
2018-11-20T14:29:00.974Z,74.92
2018-11-20T14:30:58.685Z,75.99
2018-11-20T14:32:02.070Z,75.51
2018-11-20T14:32:55.846Z,75.45
2018-11-20T14:33:58.813Z,75.31
2018-11-20T14:34:58.093Z,75.31
2018-11-20T14:39:53.212Z,74.24
2018-11-20T14:42:00.796Z,75.31
2018-11-20T14:42:58.964Z,74.24
2018-11-20T14:43:59.988Z,74.92
2018-11-20T14:46:02.047Z,73.85
2018-11-20T14:47:03.691Z,74.05
2018-11-20T14:50:02.893Z,73.27
2018-11-20T14:52:06.535Z,73.18
2018-11-20T14:52:57.376Z,73.27
2018-11-20T14:54:59.130Z,71.62
2018-11-20T14:56:57.400Z,72.20
2018-11-20T14:57:57.536Z,72.01
2018-11-20T14:58:56.293Z,72.59
2018-11-20T14:59:56.704Z,72.78
2018-11-20T15:01:00.227Z,73.85
2018-11-20T15:01:59.691Z,75.02
2018-11-20T15:03:00.041Z,73.08
2018-11-20T15:03:56.134Z,73.37
2018-11-20T15:05:00.010Z,73.75
2018-11-20T15:05:55.540Z,72.78
2018-11-20T15:06:58.379Z,73.56
2018-11-20T15:08:01.149Z,73.75
2018-11-20T15:09:57.078Z,73.85
2018-11-20T15:10:59.629Z,73.37
2018-11-20T15:12:04.046Z,72.59
2018-11-20T15:13:00.362Z,72.11
2018-11-20T15:15:02.420Z,72.98
2018-11-20T15:15:55.870Z,74.15
2018-11-20T15:17:06.012Z,73.56
2018-11-20T15:17:58.544Z,72.69
2018-11-20T15:18:58.548Z,73.75
2018-11-20T15:19:58.764Z,73.08